Terminal Aerodrome Forecast
Issued by NWS

Home | Current Version | Previous Version | Text Only | Print | Product List | Glossary On
Versions: 1 2 3 4 5 6 7 8 9 10 11 12 13
000
FTUS46 KSEW 202329
TAFBLI
TAF
KBLI 202329Z 2100/2124 16012G17KT P6SM VCSH SCT030 OVC060
     FM210300 17008KT P6SM SCT035 BKN080 OVC120
     FM211100 10008KT P6SM FEW040 OVC080
     FM211500 13018G27KT 6SM -RA BKN020 OVC040
      TEMPO 2118/2122 2SM RA BR OVC015=

USA.gov is the U.S. government's official web portal to all federal, state and local government web resources and services.